sensor_id;sensor_type;location;lat;lon;timestamp;P1;durP1;ratioP1;P2;durP2;ratioP2
67816;SDS011;54614;47.576;7.524;2023-09-12T00:00:34;7.60;;;5.70;;
67816;SDS011;54614;47.576;7.524;2023-09-12T00:03:00;8.38;;;6.22;;
67816;SDS011;54614;47.576;7.524;2023-09-12T00:05:26;8.48;;;5.55;;
67816;SDS011;54614;47.576;7.524;2023-09-12T00:07:52;7.75;;;5.85;;
67816;SDS011;54614;47.576;7.524;2023-09-12T00:10:19;6.65;;;5.60;;
67816;SDS011;54614;47.576;7.524;2023-09-12T00:12:45;6.28;;;5.40;;
67816;SDS011;54614;47.576;7.524;2023-09-12T00:15:11;5.72;;;5.13;;
67816;SDS011;54614;47.576;7.524;2023-09-12T00:17:37;6.55;;;5.43;;
67816;SDS011;54614;47.576;7.524;2023-09-12T00:20:04;5.97;;;5.38;;
67816;SDS011;54614;47.576;7.524;2023-09-12T00:22:32;6.18;;;5.00;;
67816;SDS011;54614;47.576;7.524;2023-09-12T00:24:58;7.15;;;5.80;;
67816;SDS011;54614;47.576;7.524;2023-09-12T00:27:24;6.68;;;5.10;;
67816;SDS011;54614;47.576;7.524;2023-09-12T00:29:50;6.43;;;5.40;;
67816;SDS011;54614;47.576;7.524;2023-09-12T00:32:16;5.45;;;4.93;;
67816;SDS011;54614;47.576;7.524;2023-09-12T00:34:42;7.32;;;5.70;;
67816;SDS011;54614;47.576;7.524;2023-09-12T00:37:08;4.97;;;4.47;;
67816;SDS011;54614;47.576;7.524;2023-09-12T00:39:35;5.57;;;4.80;;
67816;SDS011;54614;47.576;7.524;2023-09-12T00:42:01;6.40;;;5.18;;
67816;SDS011;54614;47.576;7.524;2023-09-12T00:44:27;5.90;;;5.28;;
67816;SDS011;54614;47.576;7.524;2023-09-12T00:46:53;6.28;;;5.30;;
67816;SDS011;54614;47.576;7.524;2023-09-12T00:49:20;7.85;;;4.90;;
67816;SDS011;54614;47.576;7.524;2023-09-12T00:51:47;5.20;;;4.65;;
67816;SDS011;54614;47.576;7.524;2023-09-12T00:54:15;5.93;;;5.28;;
67816;SDS011;54614;47.576;7.524;2023-09-12T00:56:42;5.57;;;5.00;;
67816;SDS011;54614;47.576;7.524;2023-09-12T00:59:08;5.35;;;4.85;;
67816;SDS011;54614;47.576;7.524;2023-09-12T01:01:35;5.88;;;4.90;;
67816;SDS011;54614;47.576;7.524;2023-09-12T01:04:02;6.40;;;5.18;;
67816;SDS011;54614;47.576;7.524;2023-09-12T01:06:28;9.25;;;5.18;;
67816;SDS011;54614;47.576;7.524;2023-09-12T01:08:56;5.40;;;4.90;;
67816;SDS011;54614;47.576;7.524;2023-09-12T01:11:23;5.75;;;5.05;;
67816;SDS011;54614;47.576;7.524;2023-09-12T01:13:50;6.13;;;5.38;;
67816;SDS011;54614;47.576;7.524;2023-09-12T01:16:16;6.13;;;4.55;;
67816;SDS011;54614;47.576;7.524;2023-09-12T01:18:42;5.10;;;4.60;;
67816;SDS011;54614;47.576;7.524;2023-09-12T01:29:59;5.05;;;4.57;;
67816;SDS011;54614;47.576;7.524;2023-09-12T01:32:29;5.60;;;5.00;;
67816;SDS011;54614;47.576;7.524;2023-09-12T01:34:56;4.68;;;4.28;;
67816;SDS011;54614;47.576;7.524;2023-09-12T01:37:22;6.82;;;4.63;;
67816;SDS011;54614;47.576;7.524;2023-09-12T01:39:49;5.63;;;4.85;;
67816;SDS011;54614;47.576;7.524;2023-09-12T01:42:16;5.07;;;4.55;;
67816;SDS011;54614;47.576;7.524;2023-09-12T01:44:45;5.35;;;4.85;;
67816;SDS011;54614;47.576;7.524;2023-09-12T01:47:15;5.38;;;4.63;;
67816;SDS011;54614;47.576;7.524;2023-09-12T01:49:44;5.40;;;4.85;;
67816;SDS011;54614;47.576;7.524;2023-09-12T01:52:13;4.90;;;4.47;;
67816;SDS011;54614;47.576;7.524;2023-09-12T01:54:40;5.53;;;5.03;;
67816;SDS011;54614;47.576;7.524;2023-09-12T01:57:07;4.75;;;4.28;;
67816;SDS011;54614;47.576;7.524;2023-09-12T01:59:34;9.13;;;4.78;;
67816;SDS011;54614;47.576;7.524;2023-09-12T02:02:00;5.20;;;4.70;;
67816;SDS011;54614;47.576;7.524;2023-09-12T02:04:27;5.30;;;4.80;;
67816;SDS011;54614;47.576;7.524;2023-09-12T02:06:53;5.18;;;4.63;;
67816;SDS011;54614;47.576;7.524;2023-09-12T02:09:19;5.35;;;4.85;;
67816;SDS011;54614;47.576;7.524;2023-09-12T02:11:46;5.38;;;4.88;;
67816;SDS011;54614;47.576;7.524;2023-09-12T02:14:13;5.35;;;4.85;;
67816;SDS011;54614;47.576;7.524;2023-09-12T02:16:39;5.10;;;4.40;;
67816;SDS011;54614;47.576;7.524;2023-09-12T02:19:05;5.15;;;4.68;;
67816;SDS011;54614;47.576;7.524;2023-09-12T02:21:32;5.20;;;4.70;;
67816;SDS011;54614;47.576;7.524;2023-09-12T02:23:58;5.07;;;4.57;;
67816;SDS011;54614;47.576;7.524;2023-09-12T02:26:24;4.70;;;4.30;;
67816;SDS011;54614;47.576;7.524;2023-09-12T02:28:50;4.70;;;4.30;;
67816;SDS011;54614;47.576;7.524;2023-09-12T02:31:16;5.13;;;4.63;;
67816;SDS011;54614;47.576;7.524;2023-09-12T02:33:42;5.55;;;4.78;;
67816;SDS011;54614;47.576;7.524;2023-09-12T02:36:08;4.85;;;4.45;;
67816;SDS011;54614;47.576;7.524;2023-09-12T02:38:40;4.90;;;4.50;;
67816;SDS011;54614;47.576;7.524;2023-09-12T02:41:11;4.90;;;4.35;;
67816;SDS011;54614;47.576;7.524;2023-09-12T02:43:45;5.25;;;4.75;;
67816;SDS011;54614;47.576;7.524;2023-09-12T02:46:26;5.68;;;4.65;;
67816;SDS011;54614;47.576;7.524;2023-09-12T02:49:10;5.00;;;4.50;;
67816;SDS011;54614;47.576;7.524;2023-09-12T02:52:18;4.65;;;4.22;;
67816;SDS011;54614;47.576;7.524;2023-09-12T02:55:27;5.28;;;4.40;;
67816;SDS011;54614;47.576;7.524;2023-09-12T02:58:37;4.90;;;4.40;;
67816;SDS011;54614;47.576;7.524;2023-09-12T03:01:50;4.60;;;4.20;;
67816;SDS011;54614;47.576;7.524;2023-09-12T03:04:18;5.75;;;4.07;;
67816;SDS011;54614;47.576;7.524;2023-09-12T03:06:44;4.40;;;4.00;;
67816;SDS011;54614;47.576;7.524;2023-09-12T03:09:10;4.80;;;4.40;;
67816;SDS011;54614;47.576;7.524;2023-09-12T03:11:38;4.65;;;4.22;;
67816;SDS011;54614;47.576;7.524;2023-09-12T03:14:04;5.60;;;4.35;;
67816;SDS011;54614;47.576;7.524;2023-09-12T03:16:30;4.65;;;4.25;;
67816;SDS011;54614;47.576;7.524;2023-09-12T03:18:56;4.80;;;4.40;;
67816;SDS011;54614;47.576;7.524;2023-09-12T03:21:23;5.07;;;4.57;;
67816;SDS011;54614;47.576;7.524;2023-09-12T03:23:49;5.00;;;4.07;;
67816;SDS011;54614;47.576;7.524;2023-09-12T03:26:15;4.95;;;4.45;;
67816;SDS011;54614;47.576;7.524;2023-09-12T03:28:41;5.22;;;4.72;;
67816;SDS011;54614;47.576;7.524;2023-09-12T03:31:11;4.53;;;4.13;;
67816;SDS011;54614;47.576;7.524;2023-09-12T03:33:39;5.53;;;4.60;;
67816;SDS011;54614;47.576;7.524;2023-09-12T03:36:27;5.47;;;4.22;;
67816;SDS011;54614;47.576;7.524;2023-09-12T03:38:53;4.97;;;4.57;;
67816;SDS011;54614;47.576;7.524;2023-09-12T03:41:19;4.60;;;4.20;;
67816;SDS011;54614;47.576;7.524;2023-09-12T03:43:50;5.00;;;4.55;;
67816;SDS011;54614;47.576;7.524;2023-09-12T03:46:20;5.93;;;4.80;;
67816;SDS011;54614;47.576;7.524;2023-09-12T03:48:46;5.57;;;4.53;;
67816;SDS011;54614;47.576;7.524;2023-09-12T03:51:13;4.90;;;4.40;;
67816;SDS011;54614;47.576;7.524;2023-09-12T03:53:39;4.95;;;4.45;;
67816;SDS011;54614;47.576;7.524;2023-09-12T03:56:06;5.20;;;4.70;;
67816;SDS011;54614;47.576;7.524;2023-09-12T03:58:33;5.30;;;4.80;;
67816;SDS011;54614;47.576;7.524;2023-09-12T04:00:59;5.00;;;4.50;;
67816;SDS011;54614;47.576;7.524;2023-09-12T04:03:25;5.35;;;4.82;;
67816;SDS011;54614;47.576;7.524;2023-09-12T04:05:51;4.78;;;4.38;;
67816;SDS011;54614;47.576;7.524;2023-09-12T04:08:17;5.22;;;4.53;;
67816;SDS011;54614;47.576;7.524;2023-09-12T04:10:44;4.93;;;4.43;;
67816;SDS011;54614;47.576;7.524;2023-09-12T04:13:10;4.70;;;4.28;;
67816;SDS011;54614;47.576;7.524;2023-09-12T04:15:36;5.53;;;4.80;;
67816;SDS011;54614;47.576;7.524;2023-09-12T04:18:02;5.60;;;4.65;;
67816;SDS011;54614;47.576;7.524;2023-09-12T04:20:29;4.97;;;4.57;;
67816;SDS011;54614;47.576;7.524;2023-09-12T04:22:55;5.78;;;4.47;;
67816;SDS011;54614;47.576;7.524;2023-09-12T04:25:27;5.75;;;4.70;;
67816;SDS011;54614;47.576;7.524;2023-09-12T04:28:01;6.10;;;4.40;;
67816;SDS011;54614;47.576;7.524;2023-09-12T04:30:35;5.53;;;4.57;;
67816;SDS011;54614;47.576;7.524;2023-09-12T04:33:08;5.03;;;4.53;;
67816;SDS011;54614;47.576;7.524;2023-09-12T04:35:46;5.13;;;4.63;;
67816;SDS011;54614;47.576;7.524;2023-09-12T04:38:27;5.20;;;4.70;;
67816;SDS011;54614;47.576;7.524;2023-09-12T04:41:08;5.10;;;4.60;;
67816;SDS011;54614;47.576;7.524;2023-09-12T04:43:47;5.13;;;4.60;;
67816;SDS011;54614;47.576;7.524;2023-09-12T04:46:27;5.15;;;4.50;;
67816;SDS011;54614;47.576;7.524;2023-09-12T04:49:09;5.00;;;4.50;;
67816;SDS011;54614;47.576;7.524;2023-09-12T04:51:52;4.95;;;4.45;;
67816;SDS011;54614;47.576;7.524;2023-09-12T04:54:36;4.80;;;4.40;;
67816;SDS011;54614;47.576;7.524;2023-09-12T04:57:14;5.90;;;5.30;;
67816;SDS011;54614;47.576;7.524;2023-09-12T04:59:45;8.02;;;6.88;;
67816;SDS011;54614;47.576;7.524;2023-09-12T05:02:16;9.07;;;7.60;;
67816;SDS011;54614;47.576;7.524;2023-09-12T05:04:47;10.75;;;7.78;;
67816;SDS011;54614;47.576;7.524;2023-09-12T05:07:29;15.80;;;9.80;;
67816;SDS011;54614;47.576;7.524;2023-09-12T05:10:35;13.18;;;9.55;;
67816;SDS011;54614;47.576;7.524;2023-09-12T05:13:42;14.18;;;9.85;;
67816;SDS011;54614;47.576;7.524;2023-09-12T05:16:50;15.23;;;10.00;;
67816;SDS011;54614;47.576;7.524;2023-09-12T05:19:58;13.77;;;9.90;;
67816;SDS011;54614;47.576;7.524;2023-09-12T05:23:07;13.45;;;9.80;;
67816;SDS011;54614;47.576;7.524;2023-09-12T05:25:34;14.60;;;10.32;;
67816;SDS011;54614;47.576;7.524;2023-09-12T05:28:00;16.85;;;10.88;;
67816;SDS011;54614;47.576;7.524;2023-09-12T05:30:26;12.82;;;9.35;;
67816;SDS011;54614;47.576;7.524;2023-09-12T05:32:52;14.00;;;9.88;;
67816;SDS011;54614;47.576;7.524;2023-09-12T05:35:18;13.07;;;9.93;;
67816;SDS011;54614;47.576;7.524;2023-09-12T05:37:44;17.20;;;9.77;;
67816;SDS011;54614;47.576;7.524;2023-09-12T05:40:11;11.75;;;9.55;;
67816;SDS011;54614;47.576;7.524;2023-09-12T05:42:37;18.20;;;10.00;;
67816;SDS011;54614;47.576;7.524;2023-09-12T05:45:03;17.60;;;10.25;;
67816;SDS011;54614;47.576;7.524;2023-09-12T05:47:31;15.68;;;9.63;;
67816;SDS011;54614;47.576;7.524;2023-09-12T05:49:57;14.85;;;10.27;;
67816;SDS011;54614;47.576;7.524;2023-09-12T05:52:24;17.27;;;10.30;;
67816;SDS011;54614;47.576;7.524;2023-09-12T05:54:50;18.27;;;10.10;;
67816;SDS011;54614;47.576;7.524;2023-09-12T05:57:16;14.48;;;10.20;;
67816;SDS011;54614;47.576;7.524;2023-09-12T05:59:46;15.32;;;10.05;;
67816;SDS011;54614;47.576;7.524;2023-09-12T06:02:12;15.77;;;9.68;;
67816;SDS011;54614;47.576;7.524;2023-09-12T06:04:38;14.68;;;9.80;;
67816;SDS011;54614;47.576;7.524;2023-09-12T06:07:05;13.32;;;9.55;;
67816;SDS011;54614;47.576;7.524;2023-09-12T06:09:31;17.15;;;10.13;;
67816;SDS011;54614;47.576;7.524;2023-09-12T06:11:57;17.45;;;10.23;;
67816;SDS011;54614;47.576;7.524;2023-09-12T06:14:23;13.77;;;10.23;;
67816;SDS011;54614;47.576;7.524;2023-09-12T06:16:49;20.10;;;10.45;;
67816;SDS011;54614;47.576;7.524;2023-09-12T06:19:15;15.18;;;10.25;;
67816;SDS011;54614;47.576;7.524;2023-09-12T06:21:42;14.82;;;10.80;;
67816;SDS011;54614;47.576;7.524;2023-09-12T06:26:42;16.02;;;11.00;;
67816;SDS011;54614;47.576;7.524;2023-09-12T06:29:08;16.70;;;10.52;;
67816;SDS011;54614;47.576;7.524;2023-09-12T06:31:34;15.52;;;10.57;;
67816;SDS011;54614;47.576;7.524;2023-09-12T06:34:01;19.45;;;10.55;;
67816;SDS011;54614;47.576;7.524;2023-09-12T06:36:27;16.15;;;11.07;;
67816;SDS011;54614;47.576;7.524;2023-09-12T06:38:57;16.75;;;10.90;;
67816;SDS011;54614;47.576;7.524;2023-09-12T06:41:24;16.50;;;10.68;;
67816;SDS011;54614;47.576;7.524;2023-09-12T06:43:50;16.45;;;10.40;;
67816;SDS011;54614;47.576;7.524;2023-09-12T06:46:17;14.93;;;10.30;;
67816;SDS011;54614;47.576;7.524;2023-09-12T06:48:43;17.33;;;10.93;;
67816;SDS011;54614;47.576;7.524;2023-09-12T06:51:15;14.75;;;10.15;;
67816;SDS011;54614;47.576;7.524;2023-09-12T06:53:41;15.43;;;9.93;;
67816;SDS011;54614;47.576;7.524;2023-09-12T06:56:08;17.05;;;10.30;;
67816;SDS011;54614;47.576;7.524;2023-09-12T06:58:35;12.85;;;10.02;;
67816;SDS011;54614;47.576;7.524;2023-09-12T07:01:04;14.95;;;9.90;;
67816;SDS011;54614;47.576;7.524;2023-09-12T07:03:31;14.00;;;9.85;;
67816;SDS011;54614;47.576;7.524;2023-09-12T07:06:01;15.90;;;9.85;;
67816;SDS011;54614;47.576;7.524;2023-09-12T07:08:31;13.55;;;9.73;;
67816;SDS011;54614;47.576;7.524;2023-09-12T07:10:58;14.13;;;9.60;;
67816;SDS011;54614;47.576;7.524;2023-09-12T07:13:30;14.63;;;9.95;;
67816;SDS011;54614;47.576;7.524;2023-09-12T07:15:57;13.65;;;9.45;;
67816;SDS011;54614;47.576;7.524;2023-09-12T07:18:23;15.07;;;9.43;;
67816;SDS011;54614;47.576;7.524;2023-09-12T07:20:59;12.23;;;9.52;;
67816;SDS011;54614;47.576;7.524;2023-09-12T07:23:27;12.35;;;9.30;;
67816;SDS011;54614;47.576;7.524;2023-09-12T07:25:54;16.77;;;9.52;;
67816;SDS011;54614;47.576;7.524;2023-09-12T07:28:22;14.38;;;9.70;;
67816;SDS011;54614;47.576;7.524;2023-09-12T07:30:49;12.40;;;8.98;;
67816;SDS011;54614;47.576;7.524;2023-09-12T07:33:15;16.52;;;9.65;;
67816;SDS011;54614;47.576;7.524;2023-09-12T07:35:41;13.48;;;9.23;;
67816;SDS011;54614;47.576;7.524;2023-09-12T07:38:07;13.75;;;9.80;;
67816;SDS011;54614;47.576;7.524;2023-09-12T07:40:33;12.93;;;9.00;;
67816;SDS011;54614;47.576;7.524;2023-09-12T07:43:00;12.40;;;8.70;;
67816;SDS011;54614;47.576;7.524;2023-09-12T07:45:26;13.38;;;9.48;;
67816;SDS011;54614;47.576;7.524;2023-09-12T07:47:52;11.68;;;9.13;;
67816;SDS011;54614;47.576;7.524;2023-09-12T07:50:19;11.73;;;9.00;;
67816;SDS011;54614;47.576;7.524;2023-09-12T07:52:45;12.77;;;9.18;;
67816;SDS011;54614;47.576;7.524;2023-09-12T07:55:11;11.45;;;8.95;;
67816;SDS011;54614;47.576;7.524;2023-09-12T07:57:37;12.57;;;8.68;;
67816;SDS011;54614;47.576;7.524;2023-09-12T08:00:04;14.52;;;9.02;;
67816;SDS011;54614;47.576;7.524;2023-09-12T08:02:34;12.82;;;8.90;;
67816;SDS011;54614;47.576;7.524;2023-09-12T08:05:00;11.90;;;8.90;;
67816;SDS011;54614;47.576;7.524;2023-09-12T08:07:27;10.43;;;8.43;;
67816;SDS011;54614;47.576;7.524;2023-09-12T08:09:53;10.40;;;8.80;;
67816;SDS011;54614;47.576;7.524;2023-09-12T08:12:22;12.07;;;8.85;;
67816;SDS011;54614;47.576;7.524;2023-09-12T08:14:49;11.77;;;8.65;;
67816;SDS011;54614;47.576;7.524;2023-09-12T08:17:15;10.90;;;8.35;;
67816;SDS011;54614;47.576;7.524;2023-09-12T08:19:42;10.77;;;8.85;;
67816;SDS011;54614;47.576;7.524;2023-09-12T08:22:08;10.68;;;8.32;;
67816;SDS011;54614;47.576;7.524;2023-09-12T08:24:35;9.45;;;8.20;;
67816;SDS011;54614;47.576;7.524;2023-09-12T08:27:02;12.52;;;8.60;;
67816;SDS011;54614;47.576;7.524;2023-09-12T08:29:28;15.43;;;8.77;;
67816;SDS011;54614;47.576;7.524;2023-09-12T08:31:56;11.38;;;8.43;;
67816;SDS011;54614;47.576;7.524;2023-09-12T08:34:22;10.13;;;8.02;;
67816;SDS011;54614;47.576;7.524;2023-09-12T08:36:48;10.50;;;8.27;;
67816;SDS011;54614;47.576;7.524;2023-09-12T08:39:16;11.15;;;8.27;;
67816;SDS011;54614;47.576;7.524;2023-09-12T08:41:47;10.65;;;8.23;;
67816;SDS011;54614;47.576;7.524;2023-09-12T08:44:14;11.63;;;8.38;;
67816;SDS011;54614;47.576;7.524;2023-09-12T08:46:43;9.57;;;8.20;;
67816;SDS011;54614;47.576;7.524;2023-09-12T08:49:10;11.75;;;8.30;;
67816;SDS011;54614;47.576;7.524;2023-09-12T08:51:40;10.23;;;8.10;;
67816;SDS011;54614;47.576;7.524;2023-09-12T08:54:09;10.25;;;8.05;;
67816;SDS011;54614;47.576;7.524;2023-09-12T08:56:36;11.05;;;8.13;;
67816;SDS011;54614;47.576;7.524;2023-09-12T08:59:06;10.60;;;8.38;;
67816;SDS011;54614;47.576;7.524;2023-09-12T09:01:33;10.00;;;8.18;;
67816;SDS011;54614;47.576;7.524;2023-09-12T09:04:02;10.18;;;8.27;;
67816;SDS011;54614;47.576;7.524;2023-09-12T09:06:29;9.43;;;8.13;;
67816;SDS011;54614;47.576;7.524;2023-09-12T09:08:57;11.63;;;8.38;;
67816;SDS011;54614;47.576;7.524;2023-09-12T09:11:27;9.38;;;7.82;;
67816;SDS011;54614;47.576;7.524;2023-09-12T09:13:54;10.20;;;8.45;;
67816;SDS011;54614;47.576;7.524;2023-09-12T09:16:21;9.75;;;8.20;;
67816;SDS011;54614;47.576;7.524;2023-09-12T09:18:55;11.55;;;7.75;;
67816;SDS011;54614;47.576;7.524;2023-09-12T09:21:24;9.43;;;7.78;;
67816;SDS011;54614;47.576;7.524;2023-09-12T09:23:53;10.02;;;8.00;;
67816;SDS011;54614;47.576;7.524;2023-09-12T09:26:20;10.98;;;8.32;;
67816;SDS011;54614;47.576;7.524;2023-09-12T09:29:06;10.90;;;7.90;;
67816;SDS011;54614;47.576;7.524;2023-09-12T09:31:41;9.82;;;8.00;;
67816;SDS011;54614;47.576;7.524;2023-09-12T09:34:14;8.40;;;7.35;;
67816;SDS011;54614;47.576;7.524;2023-09-12T09:36:42;9.10;;;8.10;;
67816;SDS011;54614;47.576;7.524;2023-09-12T09:39:11;9.30;;;8.30;;
67816;SDS011;54614;47.576;7.524;2023-09-12T09:41:38;9.20;;;7.82;;
67816;SDS011;54614;47.576;7.524;2023-09-12T09:44:06;10.07;;;7.60;;
67816;SDS011;54614;47.576;7.524;2023-09-12T09:46:34;10.25;;;8.13;;
67816;SDS011;54614;47.576;7.524;2023-09-12T09:49:02;8.80;;;7.78;;
67816;SDS011;54614;47.576;7.524;2023-09-12T09:51:29;12.15;;;7.90;;
67816;SDS011;54614;47.576;7.524;2023-09-12T09:53:58;8.93;;;7.78;;
67816;SDS011;54614;47.576;7.524;2023-09-12T09:56:25;9.02;;;7.78;;
67816;SDS011;54614;47.576;7.524;2023-09-12T09:58:52;9.23;;;7.72;;
67816;SDS011;54614;47.576;7.524;2023-09-12T10:01:23;10.05;;;7.68;;
67816;SDS011;54614;47.576;7.524;2023-09-12T10:03:53;9.55;;;7.93;;
67816;SDS011;54614;47.576;7.524;2023-09-12T10:06:24;9.20;;;7.60;;
67816;SDS011;54614;47.576;7.524;2023-09-12T10:08:51;9.15;;;7.60;;
67816;SDS011;54614;47.576;7.524;2023-09-12T10:11:20;9.20;;;7.55;;
67816;SDS011;54614;47.576;7.524;2023-09-12T10:13:53;10.02;;;7.82;;
67816;SDS011;54614;47.576;7.524;2023-09-12T10:16:25;8.98;;;7.38;;
67816;SDS011;54614;47.576;7.524;2023-09-12T10:19:06;8.63;;;7.22;;
67816;SDS011;54614;47.576;7.524;2023-09-12T10:21:50;9.60;;;7.57;;
67816;SDS011;54614;47.576;7.524;2023-09-12T10:24:24;8.48;;;7.40;;
67816;SDS011;54614;47.576;7.524;2023-09-12T10:26:52;9.18;;;7.78;;
67816;SDS011;54614;47.576;7.524;2023-09-12T10:29:20;9.57;;;7.95;;
67816;SDS011;54614;47.576;7.524;2023-09-12T10:31:48;9.05;;;7.28;;
67816;SDS011;54614;47.576;7.524;2023-09-12T10:34:14;10.32;;;7.90;;
67816;SDS011;54614;47.576;7.524;2023-09-12T10:36:41;9.38;;;7.43;;
67816;SDS011;54614;47.576;7.524;2023-09-12T10:39:09;7.72;;;6.93;;
67816;SDS011;54614;47.576;7.524;2023-09-12T10:41:37;8.55;;;7.40;;
67816;SDS011;54614;47.576;7.524;2023-09-12T10:44:25;8.32;;;6.95;;
67816;SDS011;54614;47.576;7.524;2023-09-12T10:46:51;8.10;;;7.30;;
67816;SDS011;54614;47.576;7.524;2023-09-12T10:49:19;9.38;;;7.38;;
67816;SDS011;54614;47.576;7.524;2023-09-12T10:51:46;9.18;;;7.70;;
67816;SDS011;54614;47.576;7.524;2023-09-12T10:54:14;8.95;;;7.22;;
67816;SDS011;54614;47.576;7.524;2023-09-12T10:57:01;8.48;;;7.53;;
67816;SDS011;54614;47.576;7.524;2023-09-12T11:00:08;7.93;;;6.80;;
67816;SDS011;54614;47.576;7.524;2023-09-12T11:04:58;7.95;;;6.93;;
67816;SDS011;54614;47.576;7.524;2023-09-12T11:10:15;8.88;;;7.10;;
67816;SDS011;54614;47.576;7.524;2023-09-12T11:12:46;9.40;;;7.10;;
67816;SDS011;54614;47.576;7.524;2023-09-12T11:15:17;7.45;;;6.45;;
67816;SDS011;54614;47.576;7.524;2023-09-12T11:17:48;8.05;;;6.88;;
67816;SDS011;54614;47.576;7.524;2023-09-12T11:20:24;8.15;;;6.75;;
67816;SDS011;54614;47.576;7.524;2023-09-12T11:22:50;7.55;;;6.63;;
67816;SDS011;54614;47.576;7.524;2023-09-12T11:30:20;7.65;;;6.78;;
67816;SDS011;54614;47.576;7.524;2023-09-12T11:32:51;8.60;;;6.90;;
67816;SDS011;54614;47.576;7.524;2023-09-12T11:35:22;8.02;;;6.80;;
67816;SDS011;54614;47.576;7.524;2023-09-12T11:37:54;8.90;;;6.90;;
67816;SDS011;54614;47.576;7.524;2023-09-12T11:43:03;8.23;;;7.18;;
67816;SDS011;54614;47.576;7.524;2023-09-12T11:45:30;7.88;;;6.38;;
67816;SDS011;54614;47.576;7.524;2023-09-12T11:47:57;8.35;;;6.95;;
67816;SDS011;54614;47.576;7.524;2023-09-12T11:50:33;8.10;;;6.90;;
67816;SDS011;54614;47.576;7.524;2023-09-12T11:53:03;7.78;;;6.63;;
67816;SDS011;54614;47.576;7.524;2023-09-12T11:55:47;7.40;;;6.60;;
67816;SDS011;54614;47.576;7.524;2023-09-12T11:58:16;7.75;;;6.82;;
67816;SDS011;54614;47.576;7.524;2023-09-12T12:00:48;7.82;;;6.85;;
67816;SDS011;54614;47.576;7.524;2023-09-12T12:03:16;7.88;;;6.90;;
67816;SDS011;54614;47.576;7.524;2023-09-12T12:05:43;7.03;;;6.30;;
67816;SDS011;54614;47.576;7.524;2023-09-12T12:08:10;7.38;;;6.60;;
67816;SDS011;54614;47.576;7.524;2023-09-12T12:10:36;8.25;;;6.75;;
67816;SDS011;54614;47.576;7.524;2023-09-12T12:13:27;8.60;;;6.70;;
67816;SDS011;54614;47.576;7.524;2023-09-12T12:15:55;9.30;;;6.53;;
67816;SDS011;54614;47.576;7.524;2023-09-12T12:18:21;7.55;;;6.75;;
67816;SDS011;54614;47.576;7.524;2023-09-12T12:20:48;8.23;;;7.00;;
67816;SDS011;54614;47.576;7.524;2023-09-12T12:23:14;7.43;;;6.50;;
67816;SDS011;54614;47.576;7.524;2023-09-12T12:25:41;7.78;;;6.88;;
67816;SDS011;54614;47.576;7.524;2023-09-12T12:28:07;7.30;;;6.40;;
67816;SDS011;54614;47.576;7.524;2023-09-12T12:30:34;7.22;;;6.32;;
67816;SDS011;54614;47.576;7.524;2023-09-12T12:33:01;7.15;;;6.40;;
67816;SDS011;54614;47.576;7.524;2023-09-12T12:35:36;8.43;;;7.03;;
67816;SDS011;54614;47.576;7.524;2023-09-12T12:38:02;7.93;;;6.72;;
67816;SDS011;54614;47.576;7.524;2023-09-12T12:40:29;7.13;;;6.30;;
67816;SDS011;54614;47.576;7.524;2023-09-12T12:42:55;7.50;;;6.65;;
67816;SDS011;54614;47.576;7.524;2023-09-12T12:45:22;7.55;;;6.57;;
67816;SDS011;54614;47.576;7.524;2023-09-12T12:47:59;7.32;;;6.30;;
67816;SDS011;54614;47.576;7.524;2023-09-12T12:50:26;8.27;;;6.10;;
67816;SDS011;54614;47.576;7.524;2023-09-12T12:52:52;7.75;;;6.63;;
67816;SDS011;54614;47.576;7.524;2023-09-12T12:55:20;8.13;;;6.65;;
67816;SDS011;54614;47.576;7.524;2023-09-12T12:57:50;7.10;;;6.28;;
67816;SDS011;54614;47.576;7.524;2023-09-12T13:00:16;7.30;;;6.47;;
67816;SDS011;54614;47.576;7.524;2023-09-12T13:02:44;6.65;;;5.95;;
67816;SDS011;54614;47.576;7.524;2023-09-12T13:07:52;7.20;;;6.28;;
67816;SDS011;54614;47.576;7.524;2023-09-12T13:10:18;7.00;;;6.30;;
67816;SDS011;54614;47.576;7.524;2023-09-12T13:12:46;7.20;;;6.38;;
67816;SDS011;54614;47.576;7.524;2023-09-12T13:15:13;6.78;;;5.97;;
67816;SDS011;54614;47.576;7.524;2023-09-12T13:17:43;8.38;;;6.20;;
67816;SDS011;54614;47.576;7.524;2023-09-12T13:20:09;7.15;;;6.07;;
67816;SDS011;54614;47.576;7.524;2023-09-12T13:22:36;6.85;;;6.15;;
67816;SDS011;54614;47.576;7.524;2023-09-12T13:25:04;7.65;;;6.10;;
67816;SDS011;54614;47.576;7.524;2023-09-12T13:27:31;7.25;;;6.10;;
67816;SDS011;54614;47.576;7.524;2023-09-12T13:29:57;6.70;;;6.00;;
67816;SDS011;54614;47.576;7.524;2023-09-12T13:32:23;7.55;;;6.53;;
67816;SDS011;54614;47.576;7.524;2023-09-12T13:34:49;6.90;;;6.20;;
67816;SDS011;54614;47.576;7.524;2023-09-12T13:37:15;6.90;;;6.20;;
67816;SDS011;54614;47.576;7.524;2023-09-12T13:39:44;6.95;;;6.18;;
67816;SDS011;54614;47.576;7.524;2023-09-12T13:42:13;7.15;;;6.38;;
67816;SDS011;54614;47.576;7.524;2023-09-12T13:44:43;6.28;;;5.65;;
67816;SDS011;54614;47.576;7.524;2023-09-12T13:47:10;6.53;;;5.90;;
67816;SDS011;54614;47.576;7.524;2023-09-12T13:49:36;6.80;;;6.10;;
67816;SDS011;54614;47.576;7.524;2023-09-12T13:52:02;6.47;;;5.88;;
67816;SDS011;54614;47.576;7.524;2023-09-12T13:54:28;6.25;;;5.60;;
67816;SDS011;54614;47.576;7.524;2023-09-12T13:56:55;7.13;;;6.43;;
67816;SDS011;54614;47.576;7.524;2023-09-12T13:59:22;6.75;;;6.05;;
67816;SDS011;54614;47.576;7.524;2023-09-12T14:01:48;7.00;;;6.30;;
67816;SDS011;54614;47.576;7.524;2023-09-12T14:04:15;9.52;;;5.97;;
67816;SDS011;54614;47.576;7.524;2023-09-12T14:06:42;10.18;;;6.22;;
67816;SDS011;54614;47.576;7.524;2023-09-12T14:09:08;11.30;;;6.40;;
67816;SDS011;54614;47.576;7.524;2023-09-12T14:11:34;13.25;;;6.30;;
67816;SDS011;54614;47.576;7.524;2023-09-12T14:14:01;9.90;;;5.78;;
67816;SDS011;54614;47.576;7.524;2023-09-12T14:16:28;9.77;;;5.97;;
67816;SDS011;54614;47.576;7.524;2023-09-12T14:18:55;8.80;;;5.65;;
67816;SDS011;54614;47.576;7.524;2023-09-12T14:21:21;6.95;;;6.18;;
67816;SDS011;54614;47.576;7.524;2023-09-12T14:23:47;6.25;;;5.60;;
67816;SDS011;54614;47.576;7.524;2023-09-12T14:26:14;7.90;;;5.93;;
67816;SDS011;54614;47.576;7.524;2023-09-12T14:28:40;8.85;;;6.20;;
67816;SDS011;54614;47.576;7.524;2023-09-12T14:31:06;9.88;;;6.00;;
67816;SDS011;54614;47.576;7.524;2023-09-12T14:33:38;7.57;;;6.00;;
67816;SDS011;54614;47.576;7.524;2023-09-12T14:36:05;10.55;;;5.25;;
67816;SDS011;54614;47.576;7.524;2023-09-12T14:38:35;8.48;;;6.40;;
67816;SDS011;54614;47.576;7.524;2023-09-12T14:41:01;8.18;;;5.95;;
67816;SDS011;54614;47.576;7.524;2023-09-12T14:43:28;6.53;;;5.80;;
67816;SDS011;54614;47.576;7.524;2023-09-12T14:45:54;8.48;;;6.18;;
67816;SDS011;54614;47.576;7.524;2023-09-12T14:48:20;7.03;;;5.63;;
67816;SDS011;54614;47.576;7.524;2023-09-12T14:50:47;8.07;;;6.22;;
67816;SDS011;54614;47.576;7.524;2023-09-12T14:53:16;12.35;;;6.10;;
67816;SDS011;54614;47.576;7.524;2023-09-12T14:55:42;8.68;;;5.85;;
67816;SDS011;54614;47.576;7.524;2023-09-12T14:58:09;9.73;;;5.57;;
67816;SDS011;54614;47.576;7.524;2023-09-12T15:00:35;10.07;;;6.22;;
67816;SDS011;54614;47.576;7.524;2023-09-12T15:03:03;10.82;;;5.85;;
67816;SDS011;54614;47.576;7.524;2023-09-12T15:05:29;6.97;;;6.20;;
67816;SDS011;54614;47.576;7.524;2023-09-12T15:07:55;8.05;;;5.78;;
67816;SDS011;54614;47.576;7.524;2023-09-12T15:10:22;8.63;;;5.90;;
67816;SDS011;54614;47.576;7.524;2023-09-12T15:12:48;7.13;;;5.60;;
67816;SDS011;54614;47.576;7.524;2023-09-12T15:15:14;8.18;;;5.93;;
67816;SDS011;54614;47.576;7.524;2023-09-12T15:17:40;6.68;;;5.60;;
67816;SDS011;54614;47.576;7.524;2023-09-12T15:20:07;8.30;;;5.40;;
67816;SDS011;54614;47.576;7.524;2023-09-12T15:22:34;8.07;;;5.82;;